createdAt,value
2024-02-17T00:00:21.397Z,23.70
2024-02-17T00:00:53.423Z,23.50
2024-02-17T00:01:25.483Z,23.00
2024-02-17T00:01:57.452Z,22.97
2024-02-17T00:02:29.682Z,23.33
2024-02-17T00:03:02.536Z,22.37
2024-02-17T00:03:34.625Z,23.83
2024-02-17T00:04:06.783Z,23.57
2024-02-17T00:04:38.794Z,23.10
2024-02-17T00:05:10.888Z,23.00
2024-02-17T00:05:43.082Z,22.77
2024-02-17T00:06:15.121Z,22.57
2024-02-17T00:06:47.083Z,23.27
2024-02-17T00:07:19.060Z,22.70
2024-02-17T00:07:51.159Z,22.57
2024-02-17T00:08:51.867Z,21.97
2024-02-17T00:09:23.826Z,22.40
2024-02-17T00:09:55.734Z,21.90
2024-02-17T00:10:27.678Z,21.83
2024-02-17T00:10:59.690Z,21.70
2024-02-17T00:11:31.649Z,22.67
2024-02-17T00:12:03.761Z,22.87
2024-02-17T00:12:36.156Z,22.33
2024-02-17T00:13:08.121Z,20.80
2024-02-17T00:13:40.069Z,21.63
2024-02-17T00:14:12.042Z,20.87
2024-02-17T00:14:43.985Z,21.93
2024-02-17T00:15:16.144Z,21.83
2024-02-17T00:15:48.371Z,21.30
2024-02-17T00:16:20.801Z,21.53
2024-02-17T00:16:53.066Z,20.97
2024-02-17T00:17:24.970Z,21.20
2024-02-17T00:17:57.051Z,22.27
2024-02-17T00:18:30.376Z,21.93
2024-02-17T00:19:02.584Z,22.10
2024-02-17T00:19:34.782Z,22.57
2024-02-17T00:20:08.679Z,23.07
2024-02-17T00:20:41.007Z,21.60
2024-02-17T00:21:12.976Z,21.83
2024-02-17T00:21:45.034Z,21.50
2024-02-17T00:22:17.906Z,21.87
2024-02-17T00:22:51.211Z,22.03
2024-02-17T00:23:23.249Z,22.70
2024-02-17T00:23:55.245Z,23.20
2024-02-17T00:24:27.330Z,22.83
2024-02-17T00:24:59.280Z,21.57
2024-02-17T00:25:31.186Z,21.63
2024-02-17T00:26:03.133Z,22.03
2024-02-17T00:26:35.112Z,22.23
2024-02-17T00:27:07.141Z,22.50
2024-02-17T00:27:39.089Z,22.93
2024-02-17T00:28:10.951Z,23.30
2024-02-17T00:28:43.129Z,22.67
2024-02-17T00:29:16.659Z,22.63
2024-02-17T00:29:48.679Z,22.17
2024-02-17T00:30:22.153Z,22.13
2024-02-17T00:30:55.038Z,23.47
2024-02-17T00:31:26.961Z,22.90
2024-02-17T00:31:58.854Z,22.63
2024-02-17T00:32:30.741Z,23.73
2024-02-17T00:33:04.951Z,23.20
2024-02-17T00:33:40.224Z,22.37
2024-02-17T00:34:12.946Z,23.30
2024-02-17T00:34:45.084Z,23.33
2024-02-17T00:35:17.284Z,21.50
2024-02-17T00:35:49.226Z,22.37
2024-02-17T00:36:21.197Z,23.00
2024-02-17T00:36:53.181Z,23.23
2024-02-17T00:37:25.076Z,22.20
2024-02-17T00:37:56.956Z,21.20
2024-02-17T00:38:28.816Z,22.63
2024-02-17T00:39:00.699Z,22.60
2024-02-17T00:39:32.713Z,21.53
2024-02-17T00:40:07.181Z,21.77
2024-02-17T00:40:40.737Z,21.67
2024-02-17T00:41:12.678Z,22.60
2024-02-17T00:41:45.555Z,21.67
2024-02-17T00:42:17.437Z,22.20
2024-02-17T00:42:49.525Z,23.17
2024-02-17T00:43:23.298Z,23.07
2024-02-17T00:43:55.279Z,21.87
2024-02-17T00:44:27.257Z,22.93
2024-02-17T00:44:59.366Z,22.70
2024-02-17T00:45:31.448Z,22.83
2024-02-17T00:46:03.847Z,22.73
2024-02-17T00:46:35.849Z,21.33
2024-02-17T00:47:07.943Z,22.43
2024-02-17T00:47:39.876Z,21.83
2024-02-17T00:48:11.901Z,21.73
2024-02-17T00:48:44.006Z,21.90
2024-02-17T00:49:16.187Z,21.50
2024-02-17T00:49:48.477Z,22.77
2024-02-17T00:50:20.674Z,23.10
2024-02-17T00:51:01.906Z,22.23
2024-02-17T00:51:40.629Z,21.63
2024-02-17T00:52:12.709Z,23.77
2024-02-17T00:52:44.793Z,23.70
2024-02-17T00:53:16.668Z,23.37
2024-02-17T00:53:48.670Z,23.67
2024-02-17T00:54:20.683Z,22.93
2024-02-17T00:54:52.680Z,23.53
2024-02-17T00:55:24.783Z,23.80
2024-02-17T00:55:57.500Z,22.93
2024-02-17T00:56:29.380Z,22.30
2024-02-17T00:57:01.336Z,22.97
2024-02-17T00:57:33.339Z,23.53
2024-02-17T00:58:05.415Z,23.93
2024-02-17T00:58:37.402Z,23.17
2024-02-17T00:59:09.358Z,22.80
2024-02-17T00:59:41.248Z,24.37
2024-02-17T01:00:14.305Z,24.00
2024-02-17T01:00:46.236Z,23.77
2024-02-17T01:01:26.012Z,23.17
2024-02-17T01:02:02.602Z,22.47
2024-02-17T01:02:34.518Z,22.00
2024-02-17T01:03:06.412Z,20.70
2024-02-17T01:03:38.448Z,20.97
2024-02-17T01:04:10.680Z,23.23
2024-02-17T01:04:42.642Z,22.70
2024-02-17T01:05:14.668Z,21.77
2024-02-17T01:05:46.661Z,23.43
2024-02-17T01:06:18.756Z,23.50
2024-02-17T01:06:50.868Z,22.90
2024-02-17T01:07:22.963Z,22.23
2024-02-17T01:07:54.986Z,22.17
2024-02-17T01:08:37.858Z,23.37
2024-02-17T01:09:16.553Z,24.70
2024-02-17T01:09:48.551Z,23.50
2024-02-17T01:10:20.944Z,23.00
2024-02-17T01:10:53.098Z,23.47
2024-02-17T01:11:25.089Z,24.20
2024-02-17T01:11:57.053Z,23.63
2024-02-17T01:12:28.947Z,22.90
2024-02-17T01:13:00.849Z,24.13
2024-02-17T01:13:32.776Z,23.90
2024-02-17T01:14:04.733Z,24.47
2024-02-17T01:14:36.660Z,23.47
2024-02-17T01:15:09.455Z,23.07
2024-02-17T01:15:41.377Z,22.93
2024-02-17T01:16:13.329Z,23.20
2024-02-17T01:16:45.224Z,23.50
2024-02-17T01:17:17.160Z,23.47
2024-02-17T01:17:49.344Z,22.63
2024-02-17T01:18:21.480Z,22.63
2024-02-17T01:18:56.087Z,23.37
2024-02-17T01:19:28.338Z,23.90
2024-02-17T01:20:00.531Z,23.83
2024-02-17T01:20:32.531Z,22.77
2024-02-17T01:21:04.456Z,22.90
2024-02-17T01:21:36.893Z,23.30
2024-02-17T01:22:10.062Z,23.00
2024-02-17T01:22:42.396Z,23.70
2024-02-17T01:23:14.314Z,23.03
2024-02-17T01:23:46.260Z,23.73
2024-02-17T01:24:18.311Z,23.93
2024-02-17T01:24:50.353Z,23.83
2024-02-17T01:25:23.643Z,24.37
2024-02-17T01:25:56.706Z,24.17
2024-02-17T01:26:29.784Z,23.50
2024-02-17T01:27:01.789Z,23.50
2024-02-17T01:27:33.857Z,23.93
2024-02-17T01:28:06.694Z,23.13
2024-02-17T01:28:38.680Z,22.67
2024-02-17T01:29:11.100Z,23.57
2024-02-17T01:29:43.646Z,23.83
2024-02-17T01:30:15.629Z,23.97
2024-02-17T01:30:47.685Z,23.03
2024-02-17T01:31:19.641Z,23.63
2024-02-17T01:31:52.907Z,24.13
2024-02-17T01:32:24.875Z,23.20
2024-02-17T01:32:56.924Z,23.83
2024-02-17T01:33:28.975Z,23.37
2024-02-17T01:34:00.942Z,24.37
2024-02-17T01:34:32.845Z,25.00
2024-02-17T01:35:05.093Z,23.30
2024-02-17T01:35:37.050Z,23.80
2024-02-17T01:36:18.597Z,23.53
2024-02-17T01:36:51.575Z,25.00
2024-02-17T01:37:23.588Z,24.87
2024-02-17T01:37:55.556Z,26.77
2024-02-17T01:38:27.565Z,25.83
2024-02-17T01:38:59.549Z,25.40
2024-02-17T01:39:31.495Z,25.30
2024-02-17T01:40:03.525Z,25.63
2024-02-17T01:41:10.450Z,26.03
2024-02-17T01:41:42.363Z,24.83
2024-02-17T01:42:14.303Z,24.30
2024-02-17T01:42:46.345Z,24.60
2024-02-17T01:43:18.321Z,25.30
2024-02-17T01:43:50.188Z,25.37
2024-02-17T01:44:22.115Z,26.13
2024-02-17T01:44:54.088Z,25.97
2024-02-17T01:45:26.552Z,24.03
2024-02-17T01:45:58.638Z,23.40
2024-02-17T01:46:30.950Z,24.10
2024-02-17T01:47:03.716Z,23.87
2024-02-17T01:47:35.886Z,25.33
2024-02-17T01:48:08.621Z,24.97
2024-02-17T01:48:42.394Z,24.53
2024-02-17T01:49:16.112Z,23.80
2024-02-17T01:49:48.747Z,24.03
2024-02-17T01:50:21.504Z,23.07
2024-02-17T01:50:53.553Z,22.53
2024-02-17T01:51:27.111Z,23.00
2024-02-17T01:52:01.697Z,23.73
2024-02-17T01:52:36.227Z,23.80
2024-02-17T01:53:09.985Z,23.90
2024-02-17T01:53:43.740Z,23.83
2024-02-17T01:54:17.628Z,24.77
2024-02-17T01:54:49.973Z,23.60
2024-02-17T01:55:23.364Z,23.00
2024-02-17T01:55:55.473Z,23.10
2024-02-17T01:56:27.950Z,22.17
2024-02-17T01:57:01.755Z,22.30
2024-02-17T01:57:34.650Z,22.83
2024-02-17T01:58:06.696Z,22.77
2024-02-17T01:58:38.963Z,22.50
2024-02-17T01:59:11.104Z,22.63
2024-02-17T01:59:44.546Z,22.97
2024-02-17T02:00:17.836Z,22.80
2024-02-17T02:00:50.708Z,21.80
2024-02-17T02:01:22.770Z,22.00
2024-02-17T02:01:56.522Z,21.87
2024-02-17T02:02:29.109Z,22.73
2024-02-17T02:03:02.052Z,21.93
2024-02-17T02:03:34.373Z,21.47
2024-02-17T02:04:06.602Z,21.33
2024-02-17T02:04:38.697Z,21.07
2024-02-17T02:05:11.273Z,22.60
2024-02-17T02:05:44.160Z,22.03
2024-02-17T02:06:21.648Z,21.43
2024-02-17T02:06:53.749Z,21.50
2024-02-17T02:07:25.767Z,21.77
2024-02-17T02:07:57.847Z,21.57
2024-02-17T02:08:55.230Z,21.17
2024-02-17T02:09:28.072Z,20.93
2024-02-17T02:10:00.179Z,22.60
2024-02-17T02:10:32.178Z,22.77
2024-02-17T02:11:05.271Z,22.20
2024-02-17T02:11:39.860Z,21.77
2024-02-17T02:12:11.816Z,22.10
2024-02-17T02:12:43.936Z,21.67
2024-02-17T02:13:16.097Z,21.30
2024-02-17T02:13:48.419Z,21.33
2024-02-17T02:14:21.235Z,22.37
2024-02-17T02:15:12.195Z,22.23
2024-02-17T02:15:53.008Z,22.33
2024-02-17T02:16:26.720Z,21.30
2024-02-17T02:16:58.998Z,21.63
2024-02-17T02:17:31.040Z,21.17
2024-02-17T02:18:03.181Z,22.37
2024-02-17T02:18:35.314Z,21.50
2024-02-17T02:19:08.188Z,20.57
2024-02-17T02:19:40.243Z,20.87
2024-02-17T02:20:13.201Z,21.63
2024-02-17T02:20:45.702Z,22.20
2024-02-17T02:21:17.897Z,21.47
2024-02-17T02:21:49.915Z,20.90
2024-02-17T02:22:21.889Z,21.73
2024-02-17T02:22:53.855Z,21.03
2024-02-17T02:23:25.903Z,20.33
2024-02-17T02:23:57.885Z,21.10
2024-02-17T02:24:30.767Z,21.77
2024-02-17T02:25:07.173Z,21.57
2024-02-17T02:25:43.803Z,20.37
2024-02-17T02:26:15.899Z,21.47
2024-02-17T02:26:47.826Z,21.93
2024-02-17T02:27:19.785Z,22.70
2024-02-17T02:27:53.242Z,22.83
2024-02-17T02:28:25.952Z,22.60
2024-02-17T02:29:01.220Z,22.07
2024-02-17T02:29:33.369Z,21.47
2024-02-17T02:30:06.011Z,20.83
2024-02-17T02:30:38.209Z,20.60
2024-02-17T02:31:10.247Z,21.37
2024-02-17T02:31:42.184Z,22.60
2024-02-17T02:32:14.191Z,21.87
2024-02-17T02:32:46.271Z,22.00
2024-02-17T02:33:18.433Z,22.33
2024-02-17T02:33:55.319Z,21.70
2024-02-17T02:34:27.409Z,20.77
2024-02-17T02:35:00.563Z,21.77
2024-02-17T02:35:32.680Z,22.53
2024-02-17T02:36:04.716Z,21.87
2024-02-17T02:36:36.692Z,21.07
2024-02-17T02:37:08.759Z,21.67
2024-02-17T02:37:40.710Z,22.43
2024-02-17T02:38:12.770Z,21.73
2024-02-17T02:38:46.186Z,21.43
2024-02-17T02:39:18.066Z,21.97
2024-02-17T02:39:50.132Z,22.77
2024-02-17T02:40:22.016Z,22.53
2024-02-17T02:41:03.797Z,23.17
2024-02-17T02:41:35.676Z,23.20
2024-02-17T02:42:07.694Z,23.20
2024-02-17T02:42:40.958Z,23.20
2024-02-17T02:43:12.956Z,23.63
2024-02-17T02:43:45.807Z,23.77
2024-02-17T02:44:17.977Z,23.63
2024-02-17T02:44:49.871Z,22.73
2024-02-17T02:45:22.125Z,22.03
2024-02-17T02:45:54.300Z,22.37
2024-02-17T02:46:26.270Z,23.10
2024-02-17T02:46:58.183Z,23.53
2024-02-17T02:47:30.147Z,22.70
2024-02-17T02:48:02.160Z,22.67
2024-02-17T02:48:34.349Z,23.43
2024-02-17T02:49:06.377Z,22.57
2024-02-17T02:49:38.409Z,23.20
2024-02-17T02:50:12.268Z,23.30
2024-02-17T02:50:44.541Z,23.87
2024-02-17T02:51:18.280Z,24.37
2024-02-17T02:51:50.247Z,23.83
2024-02-17T02:52:22.214Z,23.13
2024-02-17T02:52:54.343Z,23.83
2024-02-17T02:53:26.653Z,25.13
2024-02-17T02:53:58.585Z,24.87
2024-02-17T02:54:30.762Z,25.10
2024-02-17T02:55:02.731Z,25.57
2024-02-17T02:55:34.708Z,25.27
2024-02-17T02:56:06.880Z,25.10
2024-02-17T02:56:38.780Z,24.73
2024-02-17T02:57:10.680Z,24.37
2024-02-17T02:57:42.700Z,24.57
2024-02-17T02:58:14.676Z,25.00
2024-02-17T02:58:46.604Z,25.90
2024-02-17T02:59:18.513Z,24.47
2024-02-17T02:59:51.718Z,24.77
2024-02-17T03:00:23.854Z,25.30
2024-02-17T03:00:55.930Z,26.03
2024-02-17T03:01:27.926Z,25.80
2024-02-17T03:01:59.849Z,25.70
2024-02-17T03:02:31.766Z,26.53
2024-02-17T03:03:04.063Z,25.30
2024-02-17T03:03:36.204Z,25.77
2024-02-17T03:04:08.233Z,27.43
2024-02-17T03:04:40.449Z,26.73
2024-02-17T03:05:12.485Z,27.73
2024-02-17T03:05:44.490Z,25.87
2024-02-17T03:06:16.666Z,26.07
2024-02-17T03:06:48.771Z,27.23
2024-02-17T03:07:20.937Z,27.40
2024-02-17T03:07:52.951Z,26.00
2024-02-17T03:08:24.868Z,25.20
2024-02-17T03:09:12.739Z,26.23
2024-02-17T03:09:45.040Z,24.67
2024-02-17T03:10:17.309Z,26.00
2024-02-17T03:10:49.303Z,26.90
2024-02-17T03:11:21.746Z,26.50
2024-02-17T03:11:53.795Z,25.63
2024-02-17T03:12:25.738Z,26.03
2024-02-17T03:12:58.050Z,25.33
2024-02-17T03:13:29.982Z,27.97
2024-02-17T03:14:02.117Z,28.23
2024-02-17T03:14:35.126Z,28.67
2024-02-17T03:15:07.681Z,28.80
2024-02-17T03:15:39.705Z,28.97
2024-02-17T03:16:11.930Z,28.00
2024-02-17T03:16:44.008Z,28.70
2024-02-17T03:17:17.846Z,27.20
2024-02-17T03:17:53.378Z,26.70
2024-02-17T03:18:25.381Z,27.37
2024-02-17T03:18:57.523Z,28.83
2024-02-17T03:19:30.582Z,28.53
2024-02-17T03:20:04.812Z,27.33
2024-02-17T03:20:36.856Z,27.57
2024-02-17T03:21:08.769Z,28.30
2024-02-17T03:21:41.958Z,27.27
2024-02-17T03:22:13.963Z,27.60
2024-02-17T03:22:46.639Z,27.10
2024-02-17T03:23:18.513Z,27.20
2024-02-17T03:23:50.411Z,27.93
2024-02-17T03:24:22.355Z,27.47
2024-02-17T03:24:54.575Z,26.13
2024-02-17T03:25:26.512Z,25.93
2024-02-17T03:25:58.434Z,25.63
2024-02-17T03:26:30.536Z,26.30
2024-02-17T03:27:02.504Z,26.83
2024-02-17T03:27:35.997Z,26.47
2024-02-17T03:28:08.224Z,27.60
2024-02-17T03:28:40.230Z,27.27
2024-02-17T03:29:12.100Z,26.87
2024-02-17T03:29:44.078Z,28.07
2024-02-17T03:30:16.155Z,29.13
2024-02-17T03:30:48.198Z,30.90
2024-02-17T03:31:20.151Z,32.57
2024-02-17T03:31:52.388Z,33.03
2024-02-17T03:32:25.253Z,32.50
2024-02-17T03:32:57.416Z,32.90
2024-02-17T03:33:30.200Z,33.63
2024-02-17T03:34:06.842Z,32.53
2024-02-17T03:34:40.916Z,31.33
2024-02-17T03:35:13.082Z,30.23
2024-02-17T03:35:44.970Z,29.63
2024-02-17T03:36:16.932Z,30.17
2024-02-17T03:36:49.046Z,30.77
2024-02-17T03:37:22.711Z,30.23
2024-02-17T03:37:54.782Z,31.00
2024-02-17T03:38:26.717Z,31.73
2024-02-17T03:38:58.678Z,32.43
2024-02-17T03:39:30.740Z,33.03
2024-02-17T03:40:04.086Z,31.73
2024-02-17T03:40:43.618Z,34.67
2024-02-17T03:41:16.668Z,34.73
2024-02-17T03:41:48.675Z,35.40
2024-02-17T03:42:20.758Z,34.93
2024-02-17T03:42:52.847Z,35.37
2024-02-17T03:43:24.987Z,35.23
2024-02-17T03:43:56.843Z,34.00
2024-02-17T03:44:28.781Z,35.30
2024-02-17T03:45:00.752Z,33.67
2024-02-17T03:45:32.862Z,34.90
2024-02-17T03:46:04.793Z,35.80
2024-02-17T03:46:36.778Z,36.33
2024-02-17T03:47:09.499Z,36.53
2024-02-17T03:47:41.504Z,37.37
2024-02-17T03:48:13.497Z,37.40
2024-02-17T03:48:45.697Z,36.23
2024-02-17T03:49:21.770Z,36.20
2024-02-17T03:49:53.938Z,35.73
2024-02-17T03:50:25.880Z,34.83
2024-02-17T03:50:57.799Z,34.23
2024-02-17T03:51:29.779Z,35.50
2024-02-17T03:52:01.998Z,37.23
2024-02-17T03:52:34.483Z,37.23
2024-02-17T03:53:06.422Z,35.47
2024-02-17T03:53:38.595Z,36.10
2024-02-17T03:54:10.560Z,37.27
2024-02-17T03:54:43.662Z,37.10
2024-02-17T03:55:15.737Z,36.27
2024-02-17T03:55:47.837Z,35.10
2024-02-17T03:56:19.856Z,33.77
2024-02-17T03:56:51.805Z,34.63
2024-02-17T03:57:24.886Z,34.83
2024-02-17T03:57:56.818Z,34.07
2024-02-17T03:58:28.910Z,35.50
2024-02-17T03:59:00.815Z,35.37
2024-02-17T03:59:33.074Z,33.87
2024-02-17T04:00:08.153Z,34.77
2024-02-17T04:00:40.269Z,36.27
2024-02-17T04:01:12.419Z,35.90
2024-02-17T04:01:44.484Z,35.13
2024-02-17T04:02:16.491Z,35.63
2024-02-17T04:02:48.467Z,34.13
2024-02-17T04:03:20.544Z,32.97
2024-02-17T04:03:52.505Z,29.87
2024-02-17T04:04:24.578Z,31.03
2024-02-17T04:04:56.595Z,32.90
2024-02-17T04:05:28.822Z,32.03
2024-02-17T04:06:01.015Z,29.73
2024-02-17T04:06:34.161Z,28.77
2024-02-17T04:07:06.265Z,30.13
2024-02-17T04:07:40.214Z,31.03
2024-02-17T04:08:12.398Z,32.00
2024-02-17T04:08:46.509Z,30.77
2024-02-17T04:09:37.521Z,28.97
2024-02-17T04:10:10.433Z,29.47
2024-02-17T04:10:43.339Z,28.83
2024-02-17T04:11:15.560Z,29.90
2024-02-17T04:11:47.573Z,28.63
2024-02-17T04:12:19.490Z,29.37
2024-02-17T04:12:51.543Z,31.03
2024-02-17T04:13:23.652Z,29.57
2024-02-17T04:13:58.576Z,29.77
2024-02-17T04:14:30.521Z,30.73
2024-02-17T04:15:02.417Z,29.93
2024-02-17T04:15:34.979Z,29.17
2024-02-17T04:16:07.147Z,30.20
2024-02-17T04:16:39.171Z,31.43
2024-02-17T04:17:11.109Z,31.33
2024-02-17T04:17:43.074Z,30.23
2024-02-17T04:18:15.127Z,30.10
2024-02-17T04:18:47.722Z,30.83
2024-02-17T04:19:20.546Z,31.20
2024-02-17T04:19:52.715Z,31.67
2024-02-17T04:20:24.843Z,32.37
2024-02-17T04:20:56.850Z,33.60
2024-02-17T04:21:29.164Z,34.33
2024-02-17T04:22:01.093Z,33.67
2024-02-17T04:22:33.021Z,32.70
2024-02-17T04:23:09.207Z,31.23
2024-02-17T04:23:41.236Z,30.77
2024-02-17T04:24:13.195Z,32.17
2024-02-17T04:24:46.380Z,30.90
2024-02-17T04:25:18.515Z,31.93
2024-02-17T04:25:50.391Z,34.27
2024-02-17T04:26:22.433Z,34.37
2024-02-17T04:26:54.394Z,34.87
2024-02-17T04:27:26.330Z,33.93
2024-02-17T04:27:58.765Z,31.83
2024-02-17T04:28:31.195Z,32.03
2024-02-17T04:29:03.123Z,32.90
2024-02-17T04:29:35.280Z,31.80
2024-02-17T04:30:07.999Z,31.67
2024-02-17T04:30:40.078Z,31.63
2024-02-17T04:31:12.128Z,31.63
2024-02-17T04:31:44.401Z,32.97
2024-02-17T04:32:16.305Z,32.73
2024-02-17T04:32:48.306Z,33.07
2024-02-17T04:33:20.492Z,31.90
2024-02-17T04:33:52.725Z,31.03
2024-02-17T04:34:24.865Z,30.10
2024-02-17T04:34:57.009Z,30.93
2024-02-17T04:35:29.152Z,30.87
2024-02-17T04:36:01.174Z,31.30
2024-02-17T04:36:33.164Z,32.13
2024-02-17T04:37:05.374Z,32.17
2024-02-17T04:37:37.374Z,31.80
2024-02-17T04:38:09.278Z,32.57
2024-02-17T04:38:41.949Z,32.23
2024-02-17T04:39:14.879Z,31.90
2024-02-17T04:39:46.905Z,31.20
2024-02-17T04:40:19.060Z,30.40
2024-02-17T04:40:51.156Z,29.93
2024-02-17T04:41:23.056Z,29.50
2024-02-17T04:41:56.112Z,30.03
2024-02-17T04:42:28.196Z,30.20
2024-02-17T04:43:00.162Z,29.97
2024-02-17T04:43:32.210Z,29.13
2024-02-17T04:44:04.922Z,28.70
2024-02-17T04:44:37.035Z,28.40
2024-02-17T04:45:10.841Z,28.37
2024-02-17T04:45:42.801Z,27.83
2024-02-17T04:46:15.172Z,28.43
2024-02-17T04:46:47.084Z,28.33
2024-02-17T04:47:19.042Z,30.07
2024-02-17T04:47:51.056Z,30.57
2024-02-17T04:48:23.063Z,30.27
2024-02-17T04:48:55.137Z,28.83
2024-02-17T04:49:27.156Z,28.83
2024-02-17T04:49:59.183Z,30.47
2024-02-17T04:50:31.146Z,29.63
2024-02-17T04:51:03.149Z,28.33
2024-02-17T04:51:36.322Z,29.13
2024-02-17T04:52:08.385Z,28.87
2024-02-17T04:52:40.320Z,28.70
2024-02-17T04:53:12.286Z,28.27
2024-02-17T04:53:44.231Z,28.30
2024-02-17T04:54:16.181Z,27.70
2024-02-17T04:54:48.157Z,26.60
2024-02-17T04:55:20.070Z,27.17
2024-02-17T04:55:52.152Z,27.97
2024-02-17T04:56:24.215Z,28.23
2024-02-17T04:56:56.112Z,29.23
2024-02-17T04:57:28.042Z,28.53
2024-02-17T04:58:00.179Z,29.17
2024-02-17T04:58:32.118Z,28.60
2024-02-17T04:59:04.378Z,28.80
2024-02-17T04:59:36.274Z,29.33
2024-02-17T05:00:10.129Z,28.93
2024-02-17T05:00:42.247Z,28.80
2024-02-17T05:01:14.472Z,29.53
2024-02-17T05:01:47.226Z,29.83
2024-02-17T05:02:19.177Z,29.40
2024-02-17T05:02:51.085Z,29.33
2024-02-17T05:03:23.399Z,29.83
2024-02-17T05:03:55.508Z,29.90
2024-02-17T05:04:27.628Z,30.93
2024-02-17T05:04:59.725Z,30.73
2024-02-17T05:05:31.731Z,30.90
2024-02-17T05:06:04.423Z,30.90
2024-02-17T05:06:36.381Z,31.73
2024-02-17T05:07:08.867Z,30.67
2024-02-17T05:07:40.830Z,31.20
2024-02-17T05:08:38.265Z,32.93
2024-02-17T05:09:11.321Z,31.77
2024-02-17T05:09:43.355Z,30.67
2024-02-17T05:10:15.430Z,31.33
2024-02-17T05:10:47.327Z,31.70
2024-02-17T05:11:19.224Z,31.80
2024-02-17T05:11:51.173Z,30.67
2024-02-17T05:12:23.257Z,30.47
2024-02-17T05:12:55.298Z,32.50
2024-02-17T05:13:27.444Z,32.97
2024-02-17T05:13:59.477Z,31.97
2024-02-17T05:14:31.498Z,30.90
2024-02-17T05:15:04.555Z,32.20
2024-02-17T05:15:36.760Z,32.40
2024-02-17T05:16:08.937Z,31.20
2024-02-17T05:16:40.846Z,30.33
2024-02-17T05:17:13.353Z,33.37
2024-02-17T05:17:45.730Z,31.63
2024-02-17T05:18:17.810Z,31.67
2024-02-17T05:18:50.010Z,31.93
2024-02-17T05:19:22.279Z,32.00
2024-02-17T05:19:54.319Z,31.77
2024-02-17T05:20:27.382Z,31.40
2024-02-17T05:20:59.300Z,31.77
2024-02-17T05:21:31.236Z,31.90
2024-02-17T05:22:03.149Z,31.43
2024-02-17T05:22:35.106Z,32.90
2024-02-17T05:23:07.717Z,33.80
2024-02-17T05:23:40.537Z,33.13
2024-02-17T05:24:12.669Z,32.97
2024-02-17T05:24:47.473Z,31.87
2024-02-17T05:25:22.574Z,31.30
2024-02-17T05:25:56.143Z,31.60
2024-02-17T05:26:37.849Z,32.17
2024-02-17T05:27:09.921Z,31.97
2024-02-17T05:27:42.124Z,32.73
2024-02-17T05:28:15.807Z,32.50
2024-02-17T05:28:47.688Z,32.47
2024-02-17T05:29:19.747Z,31.87
2024-02-17T05:29:51.713Z,33.30
2024-02-17T05:30:23.604Z,31.27
2024-02-17T05:30:56.300Z,32.30
2024-02-17T05:31:28.994Z,32.83
2024-02-17T05:32:04.126Z,31.80
2024-02-17T05:32:36.073Z,31.60
2024-02-17T05:33:08.945Z,31.73
2024-02-17T05:33:41.242Z,33.07
2024-02-17T05:34:13.456Z,33.33
2024-02-17T05:34:45.581Z,33.73
2024-02-17T05:35:17.814Z,32.57
2024-02-17T05:35:50.922Z,30.87
2024-02-17T05:36:55.586Z,30.30
2024-02-17T05:37:27.604Z,31.90
2024-02-17T05:38:27.351Z,32.00
2024-02-17T05:38:59.305Z,31.77
2024-02-17T05:39:32.906Z,31.90
2024-02-17T05:40:08.378Z,31.63
2024-02-17T05:40:40.428Z,31.73
2024-02-17T05:41:12.352Z,32.00
2024-02-17T05:41:44.557Z,31.90
2024-02-17T05:42:16.640Z,30.70
2024-02-17T05:42:48.675Z,31.33
2024-02-17T05:43:20.690Z,31.53
2024-02-17T05:43:54.086Z,31.70
2024-02-17T05:44:26.428Z,29.10
2024-02-17T05:44:58.470Z,29.47
2024-02-17T05:45:30.813Z,29.83
2024-02-17T05:46:02.880Z,28.73
2024-02-17T05:46:34.803Z,28.97
2024-02-17T05:47:06.785Z,30.17
2024-02-17T05:47:38.758Z,28.60
2024-02-17T05:48:11.327Z,27.87
2024-02-17T05:48:46.463Z,27.70
2024-02-17T05:49:21.352Z,27.43
2024-02-17T05:49:53.422Z,26.23
2024-02-17T05:50:25.833Z,27.90
2024-02-17T05:50:57.718Z,27.93
2024-02-17T05:51:29.838Z,28.37
2024-02-17T05:52:01.747Z,28.50
2024-02-17T05:52:34.282Z,28.40
2024-02-17T05:53:06.395Z,27.07
2024-02-17T05:53:38.452Z,28.00
2024-02-17T05:54:10.389Z,27.43
2024-02-17T05:54:42.386Z,27.70
2024-02-17T05:55:14.296Z,26.57
2024-02-17T05:55:46.355Z,27.77
2024-02-17T05:56:18.357Z,27.43
2024-02-17T05:56:50.674Z,27.97
2024-02-17T05:57:22.612Z,27.73
2024-02-17T05:57:55.216Z,27.70
2024-02-17T05:58:27.170Z,28.17
2024-02-17T05:58:59.123Z,29.30
2024-02-17T05:59:32.038Z,28.43
2024-02-17T06:00:05.370Z,28.17
2024-02-17T06:00:37.436Z,28.90
2024-02-17T06:01:09.789Z,28.13
2024-02-17T06:01:42.596Z,29.60
2024-02-17T06:02:14.587Z,28.17
2024-02-17T06:02:46.563Z,28.10
2024-02-17T06:03:19.083Z,29.07
2024-02-17T06:03:51.714Z,28.90
2024-02-17T06:04:23.862Z,27.97
2024-02-17T06:04:56.682Z,27.73
2024-02-17T06:05:30.303Z,27.73
2024-02-17T06:06:02.255Z,29.60
2024-02-17T06:06:34.926Z,31.00
2024-02-17T06:07:07.016Z,29.83
2024-02-17T06:07:39.128Z,28.53
2024-02-17T06:08:11.387Z,29.03
2024-02-17T06:08:52.329Z,28.37
2024-02-17T06:09:42.684Z,28.53
2024-02-17T06:10:14.931Z,28.67
2024-02-17T06:10:46.934Z,27.90
2024-02-17T06:11:19.011Z,27.53
2024-02-17T06:11:51.128Z,28.17
2024-02-17T06:12:23.026Z,28.40
2024-02-17T06:12:55.084Z,30.30
2024-02-17T06:13:27.047Z,29.27
2024-02-17T06:13:59.015Z,30.47
2024-02-17T06:14:30.963Z,29.17
2024-02-17T06:15:03.017Z,28.83
2024-02-17T06:15:35.909Z,27.83
2024-02-17T06:16:08.273Z,28.63
2024-02-17T06:16:40.331Z,28.10
2024-02-17T06:17:14.294Z,28.53
2024-02-17T06:17:47.990Z,29.07
2024-02-17T06:18:58.356Z,28.27
2024-02-17T06:19:49.173Z,27.33
2024-02-17T06:20:39.675Z,28.53
2024-02-17T06:21:12.374Z,28.27
2024-02-17T06:21:44.696Z,28.23
2024-02-17T06:22:16.659Z,27.93
2024-02-17T06:22:48.542Z,27.90
2024-02-17T06:23:20.486Z,27.40
2024-02-17T06:23:52.937Z,26.70
2024-02-17T06:24:24.908Z,27.90
2024-02-17T06:24:56.926Z,28.87
2024-02-17T06:25:28.939Z,27.93
2024-02-17T06:26:00.926Z,28.30
2024-02-17T06:26:35.594Z,28.93
2024-02-17T06:27:07.657Z,27.20
2024-02-17T06:27:39.749Z,27.70
2024-02-17T06:28:11.662Z,28.10
2024-02-17T06:28:43.533Z,26.73
2024-02-17T06:29:15.464Z,25.23
2024-02-17T06:29:47.563Z,24.17
2024-02-17T06:30:19.742Z,24.03
2024-02-17T06:30:51.985Z,24.87
2024-02-17T06:31:24.768Z,25.57
2024-02-17T06:31:56.731Z,26.50
2024-02-17T06:32:28.724Z,26.97
2024-02-17T06:33:01.214Z,26.67
2024-02-17T06:33:33.324Z,26.53
2024-02-17T06:34:05.741Z,26.53
2024-02-17T06:34:38.028Z,27.67
2024-02-17T06:35:11.169Z,27.10
2024-02-17T06:35:43.203Z,25.83
2024-02-17T06:36:15.425Z,24.17
2024-02-17T06:36:47.409Z,23.83
2024-02-17T06:37:19.326Z,23.00
2024-02-17T06:37:51.288Z,22.33
2024-02-17T06:38:25.175Z,22.70
2024-02-17T06:38:57.309Z,22.53
2024-02-17T06:39:29.244Z,23.40
2024-02-17T06:40:01.876Z,23.83
2024-02-17T06:40:33.934Z,24.10
2024-02-17T06:41:06.296Z,23.43
2024-02-17T06:41:38.197Z,23.67
2024-02-17T06:42:10.164Z,22.57
2024-02-17T06:42:42.213Z,22.70
2024-02-17T06:43:18.124Z,24.43
2024-02-17T06:43:51.850Z,24.97
2024-02-17T06:44:26.925Z,23.10
2024-02-17T06:44:58.897Z,22.87
2024-02-17T06:45:31.153Z,22.63
2024-02-17T06:46:04.140Z,23.07
2024-02-17T06:46:36.078Z,22.17
2024-02-17T06:47:08.165Z,22.37
2024-02-17T06:47:40.132Z,21.27
2024-02-17T06:48:12.764Z,21.70
2024-02-17T06:48:45.232Z,21.70
2024-02-17T06:49:17.477Z,22.97
2024-02-17T06:49:49.676Z,24.17
2024-02-17T06:50:25.318Z,25.27
2024-02-17T06:50:57.924Z,26.43
2024-02-17T06:51:29.838Z,25.53
2024-02-17T06:52:01.920Z,25.93
2024-02-17T06:52:33.929Z,25.53
2024-02-17T06:53:05.928Z,25.27
2024-02-17T06:53:38.322Z,24.53
2024-02-17T06:54:10.306Z,23.23
2024-02-17T06:54:42.787Z,25.83
2024-02-17T06:55:14.797Z,27.37
2024-02-17T06:55:46.990Z,25.93
2024-02-17T06:56:18.942Z,26.07
2024-02-17T06:56:51.308Z,27.10
2024-02-17T06:57:23.287Z,28.03
2024-02-17T06:57:55.293Z,27.13
2024-02-17T06:58:27.293Z,26.47
2024-02-17T06:58:59.156Z,26.37
2024-02-17T06:59:31.038Z,26.23
2024-02-17T07:00:03.278Z,25.40
2024-02-17T07:00:35.331Z,25.07
2024-02-17T07:01:07.351Z,25.33
2024-02-17T07:01:39.352Z,25.87
2024-02-17T07:02:11.371Z,26.63
2024-02-17T07:02:43.252Z,26.90
2024-02-17T07:03:16.381Z,26.83
2024-02-17T07:03:48.810Z,27.10